createdAt,value
2023-05-05T00:00:01.957Z,11.88
2023-05-05T00:00:58.973Z,12.30
2023-05-05T00:01:56.084Z,12.27
2023-05-05T00:02:53.116Z,12.05
2023-05-05T00:03:50.622Z,12.27
2023-05-05T00:04:58.176Z,12.60
2023-05-05T00:05:55.622Z,11.25
2023-05-05T00:06:52.560Z,12.85
2023-05-05T00:07:50.259Z,12.37
2023-05-05T00:08:47.933Z,12.50
2023-05-05T00:09:45.290Z,13.50
2023-05-05T00:10:45.146Z,12.73
2023-05-05T00:11:42.285Z,12.18
2023-05-05T00:12:39.575Z,11.38
2023-05-05T00:13:37.114Z,12.43
2023-05-05T00:14:34.464Z,11.35
2023-05-05T00:15:31.601Z,12.02
2023-05-05T00:18:24.984Z,12.07
2023-05-05T00:19:22.634Z,11.38
2023-05-05T00:20:20.356Z,11.93
2023-05-05T00:21:17.910Z,11.55
2023-05-05T00:22:15.704Z,11.80
2023-05-05T00:23:17.077Z,11.48
2023-05-05T00:24:14.538Z,11.43
2023-05-05T00:25:12.306Z,12.55
2023-05-05T00:26:14.425Z,11.63
2023-05-05T00:27:15.151Z,11.20
2023-05-05T00:29:22.237Z,10.75
2023-05-05T00:30:20.547Z,11.35
2023-05-05T00:31:29.432Z,11.30
2023-05-05T00:32:34.119Z,10.98
2023-05-05T00:33:31.485Z,11.25
2023-05-05T00:34:33.558Z,12.05
2023-05-05T00:35:36.499Z,11.05
2023-05-05T00:36:37.903Z,11.18
2023-05-05T00:38:34.274Z,11.35
2023-05-05T00:40:29.331Z,11.07
2023-05-05T00:41:27.143Z,11.00
2023-05-05T00:42:31.311Z,10.88
2023-05-05T00:43:31.018Z,11.50
2023-05-05T00:44:43.396Z,10.73
2023-05-05T00:45:50.962Z,10.60
2023-05-05T00:46:49.213Z,10.10
2023-05-05T00:47:52.015Z,10.77
2023-05-05T00:48:50.701Z,10.95
2023-05-05T00:49:48.152Z,10.65
2023-05-05T00:50:51.643Z,10.65
2023-05-05T00:51:48.924Z,10.70
2023-05-05T00:52:46.780Z,10.88
2023-05-05T00:53:45.691Z,10.70
2023-05-05T00:54:54.912Z,10.35
2023-05-05T00:55:52.714Z,10.55
2023-05-05T00:56:51.448Z,10.40
2023-05-05T00:57:55.932Z,10.23
2023-05-05T00:59:05.332Z,10.30
2023-05-05T01:00:03.429Z,10.50
2023-05-05T01:01:02.037Z,10.32
2023-05-05T01:02:00.249Z,10.55
2023-05-05T01:02:57.644Z,11.00
2023-05-05T01:03:56.005Z,10.38
2023-05-05T01:04:54.984Z,11.73
2023-05-05T01:06:10.773Z,10.45
2023-05-05T01:07:53.721Z,9.70
2023-05-05T01:09:09.793Z,11.27
2023-05-05T01:10:34.220Z,10.35
2023-05-05T01:11:39.307Z,10.05
2023-05-05T01:12:42.902Z,11.07
2023-05-05T01:13:46.762Z,10.73
2023-05-05T01:14:57.990Z,10.65
2023-05-05T01:16:14.976Z,10.40
2023-05-05T01:17:39.679Z,10.40
2023-05-05T01:19:03.730Z,10.70
2023-05-05T01:20:22.957Z,10.82
2023-05-05T01:22:48.281Z,10.40
2023-05-05T01:24:09.023Z,9.73
2023-05-05T01:25:34.332Z,10.70
2023-05-05T01:26:38.115Z,10.73
2023-05-05T01:28:10.764Z,10.60
2023-05-05T01:29:40.693Z,11.95
2023-05-05T01:31:09.850Z,10.63
2023-05-05T01:32:18.051Z,11.63
2023-05-05T01:33:16.930Z,11.57
2023-05-05T01:34:15.551Z,11.68
2023-05-05T01:35:26.544Z,11.68
2023-05-05T01:36:33.628Z,11.30
2023-05-05T01:38:16.065Z,11.38
2023-05-05T01:39:19.499Z,11.12
2023-05-05T01:40:22.375Z,10.68
2023-05-05T01:41:34.610Z,11.02
2023-05-05T01:42:34.747Z,11.25
2023-05-05T01:43:35.167Z,10.48
2023-05-05T01:44:34.259Z,11.20
2023-05-05T01:45:34.531Z,10.68
2023-05-05T01:46:35.249Z,11.20
2023-05-05T01:47:33.211Z,11.73
2023-05-05T01:48:34.823Z,11.23
2023-05-05T01:49:33.682Z,11.48
2023-05-05T01:50:31.566Z,10.65
2023-05-05T01:51:30.628Z,10.35
2023-05-05T01:52:30.878Z,10.90
2023-05-05T01:53:29.663Z,10.75
2023-05-05T01:54:27.466Z,10.88
2023-05-05T01:55:26.310Z,10.25
2023-05-05T01:56:24.678Z,10.77
2023-05-05T01:57:24.197Z,11.00
2023-05-05T01:58:23.079Z,11.07
2023-05-05T01:59:21.472Z,10.98
2023-05-05T02:00:20.643Z,10.52
2023-05-05T02:01:20.519Z,10.15
2023-05-05T02:02:20.462Z,11.20
2023-05-05T02:03:19.041Z,10.77
2023-05-05T02:04:18.474Z,10.32
2023-05-05T02:05:17.434Z,10.68
2023-05-05T02:06:16.826Z,10.80
2023-05-05T02:07:15.477Z,10.88
2023-05-05T02:08:18.804Z,10.75
2023-05-05T02:09:17.198Z,11.50
2023-05-05T02:10:18.468Z,10.88
2023-05-05T02:11:16.547Z,11.68
2023-05-05T02:12:14.171Z,11.18
2023-05-05T02:13:19.135Z,11.40
2023-05-05T02:14:28.400Z,11.27
2023-05-05T02:15:26.666Z,11.05
2023-05-05T02:16:25.881Z,11.65
2023-05-05T02:17:24.029Z,11.50
2023-05-05T02:18:23.176Z,11.05
2023-05-05T02:19:22.871Z,11.30
2023-05-05T02:20:22.266Z,11.40
2023-05-05T02:21:20.402Z,11.30
2023-05-05T02:22:17.572Z,11.90
2023-05-05T02:23:15.221Z,11.85
2023-05-05T02:24:12.982Z,11.45
2023-05-05T02:25:11.352Z,11.52
2023-05-05T02:26:12.039Z,11.23
2023-05-05T02:27:11.142Z,11.07
2023-05-05T02:28:14.063Z,11.32
2023-05-05T02:29:17.726Z,11.25
2023-05-05T02:30:17.022Z,11.25
2023-05-05T02:31:17.390Z,11.10
2023-05-05T02:32:35.723Z,8.23
2023-05-05T02:33:34.848Z,10.23
2023-05-05T02:34:40.839Z,10.30
2023-05-05T02:35:42.122Z,10.50
2023-05-05T02:36:42.928Z,10.85
2023-05-05T02:38:44.467Z,10.30
2023-05-05T02:39:47.963Z,10.00
2023-05-05T02:40:53.499Z,10.10
2023-05-05T02:41:53.225Z,10.43
2023-05-05T02:42:54.968Z,10.73
2023-05-05T02:43:52.915Z,10.35
2023-05-05T02:44:51.991Z,10.70
2023-05-05T02:45:49.302Z,10.75
2023-05-05T02:46:46.920Z,10.25
2023-05-05T02:47:45.471Z,11.20
2023-05-05T02:48:43.206Z,10.75
2023-05-05T02:49:40.794Z,11.45
2023-05-05T02:50:38.545Z,9.93
2023-05-05T02:51:35.983Z,10.52
2023-05-05T02:52:35.657Z,10.10
2023-05-05T02:53:33.040Z,10.60
2023-05-05T02:54:32.003Z,10.85
2023-05-05T02:55:38.760Z,11.02
2023-05-05T02:56:48.221Z,10.45
2023-05-05T02:57:51.139Z,9.90
2023-05-05T02:59:32.891Z,10.25
2023-05-05T03:02:16.466Z,9.32
2023-05-05T03:03:27.362Z,10.27
2023-05-05T03:04:31.182Z,10.40
2023-05-05T03:05:44.425Z,11.12
2023-05-05T03:06:44.428Z,10.45
2023-05-05T03:07:48.951Z,11.10
2023-05-05T03:09:06.838Z,11.10
2023-05-05T03:10:09.939Z,10.90
2023-05-05T03:11:16.219Z,10.90
2023-05-05T03:12:19.641Z,9.98
2023-05-05T03:13:18.571Z,10.80
2023-05-05T03:14:21.613Z,10.98
2023-05-05T03:15:21.882Z,10.10
2023-05-05T03:16:20.236Z,10.05
2023-05-05T03:17:19.092Z,10.38
2023-05-05T03:18:18.326Z,10.63
2023-05-05T03:19:18.635Z,10.00
2023-05-05T03:20:16.425Z,10.52
2023-05-05T03:21:14.768Z,10.35
2023-05-05T03:22:12.359Z,10.45
2023-05-05T03:23:10.830Z,9.95
2023-05-05T03:24:17.870Z,10.50
2023-05-05T03:25:16.877Z,9.88
2023-05-05T03:26:18.197Z,9.95
2023-05-05T03:27:15.400Z,9.85
2023-05-05T03:28:13.190Z,10.00
2023-05-05T03:29:10.459Z,9.65
2023-05-05T03:30:09.162Z,10.48
2023-05-05T03:31:09.399Z,9.85
2023-05-05T03:32:07.729Z,9.63
2023-05-05T03:33:05.303Z,9.20
2023-05-05T03:34:03.686Z,9.75
2023-05-05T03:35:01.400Z,10.35
2023-05-05T03:35:59.020Z,9.85
2023-05-05T03:36:57.749Z,9.73
2023-05-05T03:37:59.239Z,9.35
2023-05-05T03:38:56.506Z,9.82
2023-05-05T03:39:54.091Z,9.50
2023-05-05T03:40:51.629Z,10.25
2023-05-05T03:41:52.863Z,9.88
2023-05-05T03:42:53.962Z,9.55
2023-05-05T03:43:52.579Z,10.32
2023-05-05T03:44:54.273Z,9.82
2023-05-05T03:46:49.349Z,9.60
2023-05-05T03:47:46.633Z,9.43
2023-05-05T03:48:44.544Z,9.82
2023-05-05T03:49:42.399Z,9.75
2023-05-05T03:50:39.821Z,9.48
2023-05-05T03:51:37.590Z,9.65
2023-05-05T03:52:34.868Z,9.50
2023-05-05T03:53:32.036Z,10.07
2023-05-05T03:54:29.400Z,10.05
2023-05-05T03:55:26.683Z,9.93
2023-05-05T03:56:23.811Z,9.55
2023-05-05T03:57:21.164Z,9.50
2023-05-05T03:58:19.089Z,10.25
2023-05-05T03:59:16.410Z,9.63
2023-05-05T04:00:14.402Z,9.32
2023-05-05T04:01:12.158Z,9.43
2023-05-05T04:02:09.586Z,9.32
2023-05-05T04:03:07.025Z,9.10
2023-05-05T04:04:04.738Z,9.50
2023-05-05T04:05:01.984Z,9.30
2023-05-05T04:05:59.196Z,9.35
2023-05-05T04:06:56.437Z,9.23
2023-05-05T04:07:53.693Z,8.90
2023-05-05T04:08:51.006Z,8.75
2023-05-05T04:09:48.156Z,8.95
2023-05-05T04:10:46.108Z,9.02
2023-05-05T04:11:43.152Z,8.93
2023-05-05T04:12:40.506Z,8.48
2023-05-05T04:13:37.677Z,8.80
2023-05-05T04:14:34.993Z,8.73
2023-05-05T04:15:32.551Z,8.70
2023-05-05T04:16:31.559Z,8.27
2023-05-05T04:17:29.287Z,8.50
2023-05-05T04:18:27.317Z,8.38
2023-05-05T04:19:24.756Z,8.30
2023-05-05T04:20:22.383Z,9.15
2023-05-05T04:21:20.769Z,7.97
2023-05-05T04:22:18.004Z,8.57
2023-05-05T04:23:15.565Z,8.45
2023-05-05T04:24:14.616Z,8.40
2023-05-05T04:25:13.445Z,8.80
2023-05-05T04:26:10.601Z,8.73
2023-05-05T04:27:08.605Z,8.75
2023-05-05T04:28:09.987Z,8.02
2023-05-05T04:29:14.642Z,8.98
2023-05-05T04:30:12.288Z,9.07
2023-05-05T04:31:18.146Z,9.10
2023-05-05T04:32:15.647Z,8.95
2023-05-05T04:33:15.965Z,8.55
2023-05-05T04:34:13.633Z,7.90
2023-05-05T04:35:11.350Z,7.82
2023-05-05T04:36:12.235Z,8.45
2023-05-05T04:37:09.733Z,7.75
2023-05-05T04:38:07.308Z,8.65
2023-05-05T04:39:07.399Z,7.65
2023-05-05T04:40:05.838Z,7.87
2023-05-05T04:41:09.126Z,7.80
2023-05-05T04:42:09.504Z,7.15
2023-05-05T04:43:07.782Z,7.40
2023-05-05T04:44:05.426Z,7.70
2023-05-05T04:45:02.795Z,7.28
2023-05-05T04:46:00.362Z,7.25
2023-05-05T04:46:58.430Z,7.90
2023-05-05T04:47:56.473Z,7.78
2023-05-05T04:48:53.869Z,7.65
2023-05-05T04:49:51.656Z,7.50
2023-05-05T04:50:48.769Z,7.93
2023-05-05T04:51:46.894Z,6.78
2023-05-05T04:52:44.289Z,6.60
2023-05-05T04:53:41.874Z,7.18
2023-05-05T04:54:39.623Z,7.43
2023-05-05T04:55:39.548Z,6.82
2023-05-05T04:57:23.871Z,7.18
2023-05-05T04:58:20.910Z,7.22
2023-05-05T04:59:17.905Z,7.45
2023-05-05T05:00:15.644Z,7.50
2023-05-05T05:01:12.751Z,7.72
2023-05-05T05:02:10.065Z,7.28
2023-05-05T05:03:08.666Z,6.80
2023-05-05T05:04:11.118Z,6.75
2023-05-05T05:05:11.146Z,6.60
2023-05-05T05:06:08.345Z,7.50
2023-05-05T05:07:05.493Z,6.93
2023-05-05T05:08:02.526Z,6.80
2023-05-05T05:08:59.672Z,7.35
2023-05-05T05:09:56.633Z,7.18
2023-05-05T05:10:55.261Z,6.70
2023-05-05T05:11:52.206Z,6.57
2023-05-05T05:12:49.335Z,7.35
2023-05-05T05:13:46.612Z,7.45
2023-05-05T05:14:43.645Z,7.15
2023-05-05T05:15:40.993Z,7.07
2023-05-05T05:16:38.157Z,6.90
2023-05-05T05:17:35.519Z,7.12
2023-05-05T05:18:32.690Z,6.85
2023-05-05T05:19:29.676Z,7.60
2023-05-05T05:20:26.809Z,7.43
2023-05-05T05:21:23.884Z,7.25
2023-05-05T05:22:20.943Z,7.18
2023-05-05T05:23:24.077Z,7.53
2023-05-05T05:24:20.942Z,7.28
2023-05-05T05:25:20.969Z,7.32
2023-05-05T05:26:18.052Z,6.03
2023-05-05T05:27:14.982Z,7.30
2023-05-05T05:28:19.231Z,7.55
2023-05-05T05:29:16.362Z,7.22
2023-05-05T05:30:19.405Z,7.55
2023-05-05T05:31:16.437Z,7.25
2023-05-05T05:32:13.394Z,6.75
2023-05-05T05:33:10.922Z,7.65
2023-05-05T05:34:10.315Z,7.30
2023-05-05T05:35:09.672Z,7.45
2023-05-05T05:36:09.902Z,6.90
2023-05-05T05:37:06.783Z,6.62
2023-05-05T05:38:03.907Z,7.55
2023-05-05T05:39:00.840Z,7.53
2023-05-05T05:40:01.579Z,7.20
2023-05-05T05:41:56.589Z,6.43
2023-05-05T05:42:53.629Z,6.80
2023-05-05T05:43:51.958Z,7.47
2023-05-05T05:44:48.909Z,6.87
2023-05-05T05:45:45.996Z,7.47
2023-05-05T05:46:43.156Z,7.47
2023-05-05T05:47:40.227Z,7.18
2023-05-05T05:48:49.438Z,6.75
2023-05-05T05:49:46.499Z,6.90
2023-05-05T05:50:46.042Z,7.07
2023-05-05T05:51:43.061Z,7.35
2023-05-05T05:52:41.601Z,7.35
2023-05-05T05:53:38.716Z,7.50
2023-05-05T05:54:39.112Z,7.22
2023-05-05T05:55:36.180Z,7.90
2023-05-05T05:56:33.943Z,7.82
2023-05-05T05:57:30.927Z,7.22
2023-05-05T05:58:27.863Z,7.35
2023-05-05T05:59:24.759Z,7.10
2023-05-05T06:00:21.720Z,7.20
2023-05-05T06:01:19.722Z,7.45
2023-05-05T06:02:18.828Z,7.65
2023-05-05T06:03:16.147Z,6.80
2023-05-05T06:04:13.688Z,7.30
2023-05-05T06:05:11.228Z,6.87
2023-05-05T06:06:08.089Z,7.30
2023-05-05T06:07:05.060Z,7.32
2023-05-05T06:08:02.339Z,7.22
2023-05-05T06:09:01.236Z,7.07
2023-05-05T06:09:58.239Z,6.95
2023-05-05T06:10:55.318Z,7.12
2023-05-05T06:11:53.681Z,7.35
2023-05-05T06:12:51.789Z,6.62
2023-05-05T06:13:48.827Z,7.03
2023-05-05T06:14:45.958Z,7.07
2023-05-05T06:15:44.788Z,7.35
2023-05-05T06:16:55.439Z,7.53
2023-05-05T06:17:52.409Z,6.60
2023-05-05T06:18:56.678Z,7.00
2023-05-05T06:19:54.537Z,8.00
2023-05-05T06:20:52.517Z,6.80
2023-05-05T06:21:49.618Z,7.43
2023-05-05T06:22:46.557Z,6.85
2023-05-05T06:23:43.586Z,7.30
2023-05-05T06:24:40.840Z,7.07
2023-05-05T06:25:37.907Z,7.57
2023-05-05T06:26:35.085Z,6.95
2023-05-05T06:27:33.877Z,7.70
2023-05-05T06:28:30.908Z,6.82
2023-05-05T06:29:28.866Z,6.78
2023-05-05T06:30:27.029Z,6.95
2023-05-05T06:31:24.999Z,6.70
2023-05-05T06:32:25.391Z,6.97
2023-05-05T06:33:35.262Z,6.85
2023-05-05T06:34:32.993Z,6.72
2023-05-05T06:35:30.709Z,6.53
2023-05-05T06:36:28.385Z,7.15
2023-05-05T06:37:25.599Z,6.90
2023-05-05T06:38:26.701Z,7.07
2023-05-05T06:39:23.830Z,7.05
2023-05-05T06:40:24.720Z,7.65
2023-05-05T06:41:21.804Z,8.60
2023-05-05T06:42:29.321Z,7.80
2023-05-05T06:43:27.208Z,7.78
2023-05-05T06:44:28.780Z,7.65
2023-05-05T06:45:51.550Z,7.90
2023-05-05T06:46:51.249Z,8.18
2023-05-05T06:47:49.402Z,7.68
2023-05-05T06:48:46.556Z,6.97
2023-05-05T06:49:43.606Z,7.40
2023-05-05T06:50:42.201Z,7.95
2023-05-05T06:51:41.052Z,7.32
2023-05-05T06:52:39.777Z,7.70
2023-05-05T06:53:36.826Z,7.95
2023-05-05T06:54:41.818Z,7.68
2023-05-05T06:55:43.558Z,9.68
2023-05-05T06:56:41.229Z,10.00
2023-05-05T06:57:41.093Z,9.18
2023-05-05T06:58:38.244Z,10.20
2023-05-05T06:59:39.759Z,9.18
2023-05-05T07:00:37.035Z,8.77
2023-05-05T07:01:41.031Z,8.70
2023-05-05T07:02:39.015Z,9.18
2023-05-05T07:03:36.571Z,8.50
2023-05-05T07:04:33.558Z,8.23
2023-05-05T07:05:40.110Z,7.72
2023-05-05T07:06:38.577Z,7.07
2023-05-05T07:07:36.459Z,7.57
2023-05-05T07:10:47.967Z,7.35
2023-05-05T07:11:45.608Z,6.70
2023-05-05T07:12:47.318Z,6.93
2023-05-05T07:13:44.785Z,6.75
2023-05-05T07:14:42.753Z,7.25
2023-05-05T07:17:02.249Z,9.45
2023-05-05T07:18:00.076Z,9.15
2023-05-05T07:18:58.051Z,8.82
2023-05-05T07:19:55.472Z,9.15
2023-05-05T07:20:54.495Z,8.30
2023-05-05T07:21:53.018Z,7.12
2023-05-05T07:22:50.448Z,6.55
2023-05-05T07:23:48.251Z,7.20
2023-05-05T07:24:46.190Z,6.30
2023-05-05T07:25:44.291Z,8.00
2023-05-05T07:26:50.124Z,7.40
2023-05-05T07:56:36.050Z,9.00
2023-05-05T07:57:43.360Z,8.73
2023-05-05T07:58:40.664Z,7.87
2023-05-05T07:59:38.893Z,8.20
2023-05-05T08:00:35.954Z,8.13
2023-05-05T08:01:33.153Z,7.70
2023-05-05T08:02:30.315Z,10.00
2023-05-05T08:03:30.758Z,11.38
2023-05-05T08:04:27.990Z,12.10
2023-05-05T08:05:25.138Z,10.57
2023-05-05T08:06:22.627Z,10.32
2023-05-05T08:07:19.704Z,10.13
2023-05-05T08:08:17.086Z,10.55
2023-05-05T08:09:14.350Z,10.20
2023-05-05T08:10:12.435Z,9.80
2023-05-05T08:11:09.690Z,11.40
2023-05-05T08:12:07.030Z,11.20
2023-05-05T08:13:04.475Z,10.63
2023-05-05T08:14:01.699Z,10.57
2023-05-05T08:14:58.812Z,10.75
2023-05-05T08:15:56.181Z,10.75
2023-05-05T08:16:53.344Z,9.85
2023-05-05T08:17:52.356Z,10.30
2023-05-05T08:18:49.697Z,10.02
2023-05-05T08:19:46.978Z,10.13
2023-05-05T08:20:44.712Z,9.52
2023-05-05T08:21:41.850Z,10.45
2023-05-05T08:22:39.196Z,9.60
2023-05-05T08:23:37.267Z,9.30
2023-05-05T08:24:34.515Z,9.88
2023-05-05T08:25:31.725Z,10.00
2023-05-05T08:26:29.449Z,9.45
2023-05-05T08:27:26.555Z,9.63
2023-05-05T08:28:23.941Z,9.30
2023-05-05T08:29:21.121Z,9.23
2023-05-05T08:30:21.211Z,9.13
2023-05-05T08:31:18.611Z,9.38
2023-05-05T08:32:16.696Z,8.68
2023-05-05T08:33:13.880Z,9.00
2023-05-05T08:34:11.133Z,10.43
2023-05-05T08:35:08.694Z,9.32
2023-05-05T08:36:07.170Z,8.95
2023-05-05T08:37:04.574Z,9.35
2023-05-05T08:38:01.701Z,9.52
2023-05-05T08:38:59.893Z,9.18
2023-05-05T08:39:58.164Z,9.52
2023-05-05T08:40:55.339Z,9.18
2023-05-05T08:41:52.522Z,9.27
2023-05-05T08:42:49.783Z,9.50
2023-05-05T08:43:50.996Z,9.57
2023-05-05T08:44:48.277Z,9.75
2023-05-05T08:45:45.598Z,9.40
2023-05-05T08:46:43.332Z,9.23
2023-05-05T08:47:40.759Z,8.55
2023-05-05T08:48:41.871Z,8.00
2023-05-05T08:49:48.399Z,9.48
2023-05-05T08:50:49.375Z,9.88
2023-05-05T08:51:47.332Z,8.70
2023-05-05T08:52:45.645Z,9.05
2023-05-05T08:53:54.966Z,10.15
2023-05-05T08:54:57.182Z,8.45
2023-05-05T08:55:56.892Z,9.70
2023-05-05T08:56:54.465Z,8.68
2023-05-05T08:57:57.801Z,9.73
2023-05-05T08:58:55.429Z,9.38
2023-05-05T08:59:53.070Z,9.55
2023-05-05T09:00:51.287Z,9.30
2023-05-05T09:01:48.798Z,8.27
2023-05-05T09:02:46.701Z,8.27
2023-05-05T09:03:44.955Z,9.18
2023-05-05T09:04:42.877Z,9.77
2023-05-05T09:05:40.041Z,9.30
2023-05-05T09:06:37.729Z,8.55
2023-05-05T09:07:35.329Z,8.55
2023-05-05T09:08:33.249Z,8.27
2023-05-05T09:09:30.912Z,9.85
2023-05-05T09:10:32.052Z,9.60
2023-05-05T09:11:29.112Z,8.35
2023-05-05T09:12:28.489Z,8.43
2023-05-05T09:15:54.444Z,8.85
2023-05-05T09:16:51.578Z,7.78
2023-05-05T09:17:48.874Z,8.35
2023-05-05T09:18:46.128Z,7.75
2023-05-05T09:20:04.146Z,7.37
2023-05-05T09:21:01.691Z,7.35
2023-05-05T09:21:58.731Z,7.10
2023-05-05T09:22:56.251Z,7.60
2023-05-05T09:24:09.541Z,7.95
2023-05-05T09:26:09.165Z,7.12
2023-05-05T09:27:22.634Z,7.60
2023-05-05T09:28:19.832Z,7.50
2023-05-05T09:29:20.809Z,7.82
2023-05-05T09:30:23.842Z,8.60
2023-05-05T09:31:21.318Z,7.62
2023-05-05T09:32:18.913Z,7.53
2023-05-05T09:33:30.250Z,8.25
2023-05-05T09:34:27.520Z,8.05
2023-05-05T09:35:24.737Z,7.72
2023-05-05T09:36:42.290Z,7.70
2023-05-05T09:37:39.516Z,7.40
2023-05-05T09:38:37.111Z,7.60
2023-05-05T09:39:34.184Z,7.03
2023-05-05T09:40:48.582Z,7.50
2023-05-05T09:41:46.187Z,7.45
2023-05-05T09:42:44.653Z,7.07
2023-05-05T09:43:52.138Z,7.30
2023-05-05T09:44:49.444Z,7.30
2023-05-05T09:45:46.678Z,7.12
2023-05-05T09:46:51.772Z,7.70
2023-05-05T09:47:49.475Z,6.75
2023-05-05T09:48:46.872Z,7.80
2023-05-05T09:49:43.973Z,7.35
2023-05-05T09:50:44.854Z,6.93
2023-05-05T09:51:42.210Z,7.57
2023-05-05T09:52:39.354Z,6.87
2023-05-05T09:53:41.029Z,7.03
2023-05-05T09:54:38.190Z,6.57
2023-05-05T09:55:36.472Z,7.00
2023-05-05T09:56:43.309Z,6.93
2023-05-05T09:57:40.522Z,7.10
2023-05-05T09:58:37.823Z,6.45
2023-05-05T09:59:35.015Z,6.82
2023-05-05T10:00:39.843Z,6.85
2023-05-05T10:01:37.072Z,6.37
2023-05-05T10:02:36.680Z,7.45
2023-05-05T10:03:33.791Z,6.80
2023-05-05T10:04:31.781Z,6.43
2023-05-05T10:05:29.009Z,6.22
2023-05-05T10:06:44.310Z,6.20
2023-05-05T10:07:43.175Z,7.22
2023-05-05T10:08:40.567Z,6.95
2023-05-05T10:09:37.695Z,6.82
2023-05-05T10:10:34.793Z,5.85
2023-05-05T10:11:32.295Z,7.85
2023-05-05T10:12:30.546Z,6.18
2023-05-05T10:13:28.556Z,6.55
2023-05-05T10:14:26.057Z,6.35
2023-05-05T10:15:23.387Z,6.32
2023-05-05T10:16:21.186Z,6.22
2023-05-05T10:17:19.666Z,6.20
2023-05-05T10:18:28.713Z,6.05
2023-05-05T10:19:27.361Z,6.55
2023-05-05T10:20:24.753Z,6.07
2023-05-05T10:21:22.173Z,6.40
2023-05-05T10:22:23.646Z,6.05
2023-05-05T10:23:23.890Z,6.70
2023-05-05T10:24:35.340Z,5.93
2023-05-05T10:25:38.474Z,6.50
2023-05-05T10:26:39.910Z,7.37
2023-05-05T10:27:51.297Z,5.80
2023-05-05T10:28:53.227Z,6.28
2023-05-05T10:30:07.240Z,6.18
2023-05-05T10:31:19.993Z,6.85
2023-05-05T10:32:53.582Z,7.20
2023-05-05T10:33:55.971Z,6.47
2023-05-05T10:35:03.993Z,6.68
2023-05-05T10:36:06.356Z,6.78
2023-05-05T10:37:05.093Z,6.85
2023-05-05T10:38:02.476Z,6.00
2023-05-05T10:39:00.671Z,5.62
2023-05-05T10:39:58.148Z,5.70
2023-05-05T10:40:55.937Z,5.22
2023-05-05T10:41:53.294Z,5.80
2023-05-05T10:42:51.218Z,5.10
2023-05-05T10:43:48.476Z,7.05
2023-05-05T10:44:45.665Z,5.60
2023-05-05T10:45:43.523Z,6.40
2023-05-05T10:46:41.693Z,6.47
2023-05-05T10:47:40.740Z,5.72
2023-05-05T10:48:49.045Z,5.95
2023-05-05T10:50:16.671Z,6.18
2023-05-05T10:51:40.135Z,6.50
2023-05-05T10:53:18.582Z,6.15
2023-05-05T10:54:24.250Z,6.10
2023-05-05T10:55:31.076Z,5.35
2023-05-05T10:56:32.894Z,5.62
2023-05-05T10:57:30.353Z,5.80
2023-05-05T10:58:51.120Z,6.20
2023-05-05T10:59:53.036Z,5.60
2023-05-05T11:00:51.308Z,5.87
2023-05-05T11:01:51.038Z,5.62
2023-05-05T11:02:48.382Z,5.45
2023-05-05T11:03:45.586Z,6.10
2023-05-05T11:04:42.581Z,6.18
2023-05-05T11:06:08.543Z,5.43
2023-05-05T11:07:10.478Z,6.18
2023-05-05T11:08:27.228Z,5.97
2023-05-05T11:09:28.438Z,7.05
2023-05-05T11:10:25.713Z,6.35
2023-05-05T11:12:02.014Z,5.75
2023-05-05T11:12:59.655Z,5.82
2023-05-05T11:14:19.865Z,5.90
2023-05-05T11:15:31.996Z,5.45
2023-05-05T11:16:50.465Z,5.62
2023-05-05T11:17:51.287Z,5.40
2023-05-05T11:18:49.380Z,4.82
2023-05-05T11:19:49.179Z,5.30
2023-05-05T11:20:51.024Z,5.43
2023-05-05T11:22:02.253Z,5.70
2023-05-05T11:23:06.035Z,6.20
2023-05-05T11:24:30.245Z,5.55
2023-05-05T11:25:47.753Z,5.78
2023-05-05T11:26:52.496Z,6.00
2023-05-05T11:28:16.697Z,6.07
2023-05-05T11:29:13.879Z,6.30
2023-05-05T11:30:12.289Z,6.28
2023-05-05T11:31:18.515Z,5.18
2023-05-05T11:32:17.375Z,5.65
2023-05-05T11:33:41.489Z,5.20
2023-05-05T11:34:51.369Z,6.85
2023-05-05T11:35:57.414Z,6.22
2023-05-05T11:37:02.788Z,4.93
2023-05-05T11:38:04.169Z,6.10
2023-05-05T11:39:04.111Z,5.60
2023-05-05T11:51:27.511Z,5.50
2023-05-05T11:52:26.130Z,5.90
2023-05-05T11:53:23.470Z,5.37
2023-05-05T11:54:21.601Z,5.60
2023-05-05T11:55:22.328Z,5.72
2023-05-05T11:56:19.938Z,6.40
2023-05-05T11:57:19.729Z,6.20
2023-05-05T11:58:28.791Z,6.17
2023-05-05T11:59:25.921Z,5.68
2023-05-05T12:00:32.977Z,5.70
2023-05-05T12:01:30.178Z,6.35
2023-05-05T12:02:28.646Z,5.78
2023-05-05T12:03:25.859Z,6.15
2023-05-05T12:04:26.150Z,6.80
2023-05-05T12:05:53.771Z,5.80
2023-05-05T12:06:51.979Z,6.68
2023-05-05T12:08:00.849Z,7.03
2023-05-05T12:09:00.594Z,6.70
2023-05-05T12:10:12.565Z,5.95
2023-05-05T12:11:11.916Z,6.03
2023-05-05T12:12:08.891Z,5.60
2023-05-05T12:13:18.411Z,6.12
2023-05-05T12:14:15.550Z,6.43
2023-05-05T12:15:12.552Z,6.68
2023-05-05T12:16:13.552Z,6.72
2023-05-05T12:17:10.579Z,6.70
2023-05-05T12:18:19.032Z,6.57
2023-05-05T12:19:16.152Z,6.28
2023-05-05T12:20:13.543Z,7.15
2023-05-05T12:21:19.812Z,5.82
2023-05-05T12:22:20.773Z,6.82
2023-05-05T12:23:17.911Z,5.12
2023-05-05T12:24:15.875Z,6.95
2023-05-05T12:25:12.907Z,6.57
2023-05-05T12:26:26.228Z,4.75
2023-05-05T12:27:23.823Z,5.65
2023-05-05T12:28:20.873Z,5.32
2023-05-05T12:29:25.565Z,6.10
2023-05-05T12:30:23.314Z,5.85
2023-05-05T12:31:20.998Z,6.28
2023-05-05T12:32:31.327Z,6.32
2023-05-05T12:33:28.413Z,6.87
2023-05-05T12:34:25.422Z,6.40
2023-05-05T12:35:22.833Z,6.40
2023-05-05T12:36:19.779Z,6.00
2023-05-05T12:37:19.282Z,6.60
2023-05-05T12:38:16.534Z,6.53
2023-05-05T12:39:14.767Z,6.40
2023-05-05T12:40:49.584Z,6.68
2023-05-05T12:41:47.173Z,5.20
2023-05-05T12:42:45.782Z,4.90
2023-05-05T12:43:43.375Z,5.07
2023-05-05T12:44:41.100Z,6.65
2023-05-05T12:45:38.143Z,6.35
2023-05-05T12:46:48.371Z,6.03
2023-05-05T12:47:45.354Z,5.80
2023-05-05T12:48:46.352Z,6.30
2023-05-05T12:49:51.159Z,5.95
2023-05-05T12:50:48.361Z,6.00
2023-05-05T12:51:56.374Z,6.55
2023-05-05T12:52:53.754Z,6.28
2023-05-05T12:54:03.718Z,6.30
2023-05-05T12:55:00.884Z,6.57
2023-05-05T12:55:58.035Z,6.72
2023-05-05T12:56:56.712Z,6.85
2023-05-05T12:58:01.775Z,5.97
2023-05-05T12:58:59.140Z,6.45
2023-05-05T12:59:56.975Z,6.62
2023-05-05T13:01:20.574Z,6.25
2023-05-05T13:02:18.234Z,6.25
2023-05-05T13:03:22.144Z,6.70
2023-05-05T13:04:20.289Z,6.37
2023-05-05T13:05:34.737Z,6.53
2023-05-05T13:06:31.895Z,6.18
2023-05-05T13:07:29.156Z,6.97
2023-05-05T13:08:43.184Z,5.90
2023-05-05T13:09:40.655Z,6.93
2023-05-05T13:10:38.254Z,6.45
2023-05-05T13:11:39.073Z,6.22
2023-05-05T13:12:36.681Z,6.28
2023-05-05T13:13:33.766Z,5.95
2023-05-05T13:14:32.272Z,6.20
2023-05-05T13:15:29.421Z,5.65
2023-05-05T13:16:26.615Z,5.93
2023-05-05T13:17:23.876Z,6.40
2023-05-05T13:18:21.254Z,6.07
2023-05-05T13:19:18.324Z,6.82
2023-05-05T13:20:15.729Z,5.35
2023-05-05T13:21:13.050Z,5.82
2023-05-05T13:22:10.649Z,6.32
2023-05-05T13:23:07.815Z,5.78
2023-05-05T13:24:21.522Z,5.78
2023-05-05T13:25:23.176Z,6.12
2023-05-05T13:26:20.511Z,5.78
2023-05-05T13:27:17.774Z,5.47
2023-05-05T13:28:14.935Z,5.87
2023-05-05T13:29:12.292Z,5.80
2023-05-05T13:30:09.955Z,5.37
2023-05-05T13:31:07.482Z,6.00
2023-05-05T13:32:04.842Z,5.60
2023-05-05T13:33:04.566Z,5.10
2023-05-05T13:34:02.297Z,6.13
2023-05-05T13:34:59.748Z,5.18
2023-05-05T13:35:56.945Z,5.18
2023-05-05T13:36:54.555Z,5.80
2023-05-05T13:37:55.462Z,5.50
2023-05-05T13:38:53.401Z,5.70
2023-05-05T13:39:52.200Z,5.82
2023-05-05T13:40:55.618Z,5.60
2023-05-05T13:41:56.416Z,7.00
2023-05-05T13:42:54.347Z,5.53
2023-05-05T13:43:51.796Z,6.55
2023-05-05T13:44:55.655Z,5.37
2023-05-05T13:45:55.062Z,5.57
2023-05-05T13:46:54.916Z,5.60
2023-05-05T13:47:52.812Z,5.70
2023-05-05T13:48:56.055Z,5.62
2023-05-05T13:49:53.718Z,6.05
2023-05-05T13:50:51.375Z,5.50
2023-05-05T13:51:48.662Z,4.82
2023-05-05T13:52:46.092Z,5.00
2023-05-05T13:53:45.625Z,5.53
2023-05-05T13:54:47.470Z,5.82
2023-05-05T13:55:45.434Z,5.25
2023-05-05T13:56:42.613Z,5.22
2023-05-05T13:57:39.940Z,5.00
2023-05-05T13:58:38.210Z,5.15
2023-05-05T13:59:39.074Z,5.30
2023-05-05T14:00:38.218Z,6.00
2023-05-05T14:01:36.149Z,5.70
2023-05-05T14:02:34.091Z,5.87
2023-05-05T14:03:32.028Z,5.50
2023-05-05T14:04:29.320Z,5.47
2023-05-05T14:05:27.260Z,5.28
2023-05-05T14:06:25.219Z,5.95
2023-05-05T14:07:24.646Z,5.55
2023-05-05T14:08:22.234Z,5.93
2023-05-05T14:09:19.829Z,5.50
2023-05-05T14:10:17.091Z,5.32
2023-05-05T14:11:14.286Z,5.32
2023-05-05T14:12:12.891Z,5.28
2023-05-05T14:13:11.844Z,5.90
2023-05-05T14:14:12.950Z,5.50
2023-05-05T14:15:12.319Z,5.68
2023-05-05T14:16:10.557Z,5.55
2023-05-05T14:17:08.493Z,5.43
2023-05-05T14:18:06.560Z,5.28
2023-05-05T14:19:04.134Z,4.90
2023-05-05T14:20:06.536Z,5.12